Aviation Digital Data Service (ADDS)

Output produced by METARs form (2156 UTC 19 February 2018)
found at http://www.aviationweather.gov/adds/metars/
 
FOOG 192100Z 18003KT 9999 FEW008 FEW020CB BKN030 28/25 Q1010
TAF FOOG 191100Z 1912/2012 24008KT 9999 SCT010 FEW020CB BKN030 
     PROB40 
     TEMPO 1914/1921 3500 TSRA BKN006 FEW016CB OVC023
       
FOOL 192130Z 09002KT 9999 FEW012 26/24 Q1010 NOSIG
TAF FOOL 191700Z 1918/2024 22006KT 9999 FEW010 FEW020CB 
     TEMPO 1919/1922 TS 
     PROB30 
     TEMPO 1923/2007 3500 TSRA SCT008 FEW018CB OVC026
       
FOON 191800Z 07007KT 030V110 8000 -TSRA SCT008 SCT020 OVC026 25/22 Q1011
FOON 191800Z 07007KT 030V110 8000 -TSRA SCT008 SCT020 OVC026 25/22 Q1011
FOOG 192100Z 18003KT 9999 FEW008 FEW020CB BKN030 28/25 Q1010
TAF FOOG 191100Z 1912/2012 24008KT 9999 SCT010 FEW020CB BKN030 
     PROB40 
     TEMPO 1914/1921 3500 TSRA BKN006 FEW016CB OVC023
       
FOOL 192130Z 09002KT 9999 FEW012 26/24 Q1010 NOSIG
TAF FOOL 191700Z 1918/2024 22006KT 9999 FEW010 FEW020CB 
     TEMPO 1919/1922 TS 
     PROB30 
     TEMPO 1923/2007 3500 TSRA SCT008 FEW018CB OVC026
       
FOON 191800Z 07007KT 030V110 8000 -TSRA SCT008 SCT020 OVC026 25/22 Q1011
FOOL 192130Z 09002KT 9999 FEW012 26/24 Q1010 NOSIG
TAF FOOL 191700Z 1918/2024 22006KT 9999 FEW010 FEW020CB 
     TEMPO 1919/1922 TS 
     PROB30 
     TEMPO 1923/2007 3500 TSRA SCT008 FEW018CB OVC026
       
FOOG 192100Z 18003KT 9999 FEW008 FEW020CB BKN030 28/25 Q1010
TAF FOOG 191100Z 1912/2012 24008KT 9999 SCT010 FEW020CB BKN030 
     PROB40 
     TEMPO 1914/1921 3500 TSRA BKN006 FEW016CB OVC023